sensor_id;sensor_type;location;lat;lon;timestamp;P1;durP1;ratioP1;P2;durP2;ratioP2
69856;SDS011;57147;53.582;10.112;2022-12-19T00:04:13;27.98;;;11.68;;
69856;SDS011;57147;53.582;10.112;2022-12-19T00:09:14;24.77;;;13.48;;
69856;SDS011;57147;53.582;10.112;2022-12-19T00:14:17;24.27;;;11.85;;
69856;SDS011;57147;53.582;10.112;2022-12-19T00:19:17;23.98;;;13.40;;
69856;SDS011;57147;53.582;10.112;2022-12-19T00:24:18;24.50;;;12.25;;
69856;SDS011;57147;53.582;10.112;2022-12-19T00:29:21;23.90;;;11.80;;
69856;SDS011;57147;53.582;10.112;2022-12-19T00:34:22;22.27;;;11.63;;
69856;SDS011;57147;53.582;10.112;2022-12-19T00:39:23;24.60;;;11.60;;
69856;SDS011;57147;53.582;10.112;2022-12-19T00:44:26;22.77;;;12.65;;
69856;SDS011;57147;53.582;10.112;2022-12-19T00:49:26;23.52;;;12.93;;
69856;SDS011;57147;53.582;10.112;2022-12-19T00:54:27;23.15;;;11.85;;
69856;SDS011;57147;53.582;10.112;2022-12-19T00:59:30;23.65;;;11.30;;
69856;SDS011;57147;53.582;10.112;2022-12-19T01:04:31;24.25;;;13.00;;
69856;SDS011;57147;53.582;10.112;2022-12-19T01:09:32;23.67;;;12.55;;
69856;SDS011;57147;53.582;10.112;2022-12-19T01:14:36;24.83;;;11.25;;
69856;SDS011;57147;53.582;10.112;2022-12-19T01:19:37;22.50;;;11.00;;
69856;SDS011;57147;53.582;10.112;2022-12-19T01:24:37;23.35;;;10.63;;
69856;SDS011;57147;53.582;10.112;2022-12-19T01:29:41;24.95;;;13.13;;
69856;SDS011;57147;53.582;10.112;2022-12-19T01:34:41;25.88;;;15.43;;
69856;SDS011;57147;53.582;10.112;2022-12-19T01:39:42;23.70;;;12.27;;
69856;SDS011;57147;53.582;10.112;2022-12-19T01:50:18;22.08;;;11.27;;
69856;SDS011;57147;53.582;10.112;2022-12-19T01:55:22;23.33;;;12.60;;
69856;SDS011;57147;53.582;10.112;2022-12-19T02:00:26;20.48;;;10.38;;
69856;SDS011;57147;53.582;10.112;2022-12-19T02:05:27;21.33;;;10.07;;
69856;SDS011;57147;53.582;10.112;2022-12-19T02:10:28;22.52;;;10.90;;
69856;SDS011;57147;53.582;10.112;2022-12-19T02:15:32;22.25;;;13.18;;
69856;SDS011;57147;53.582;10.112;2022-12-19T02:26:38;23.17;;;11.10;;
69856;SDS011;57147;53.582;10.112;2022-12-19T02:31:52;20.80;;;10.13;;
69856;SDS011;57147;53.582;10.112;2022-12-19T02:36:59;21.33;;;11.15;;
69856;SDS011;57147;53.582;10.112;2022-12-19T02:42:01;21.33;;;11.65;;
69856;SDS011;57147;53.582;10.112;2022-12-19T02:47:08;24.02;;;11.15;;
69856;SDS011;57147;53.582;10.112;2022-12-19T02:52:10;21.10;;;10.02;;
69856;SDS011;57147;53.582;10.112;2022-12-19T02:57:13;21.17;;;11.73;;
69856;SDS011;57147;53.582;10.112;2022-12-19T03:02:22;22.52;;;11.93;;
69856;SDS011;57147;53.582;10.112;2022-12-19T03:07:33;22.75;;;11.80;;
69856;SDS011;57147;53.582;10.112;2022-12-19T03:12:43;22.13;;;11.02;;
69856;SDS011;57147;53.582;10.112;2022-12-19T03:17:51;21.63;;;11.38;;
69856;SDS011;57147;53.582;10.112;2022-12-19T03:22:56;21.00;;;11.98;;
69856;SDS011;57147;53.582;10.112;2022-12-19T03:27:57;21.95;;;12.13;;
69856;SDS011;57147;53.582;10.112;2022-12-19T03:33:04;24.48;;;11.82;;
69856;SDS011;57147;53.582;10.112;2022-12-19T03:38:06;23.63;;;12.07;;
69856;SDS011;57147;53.582;10.112;2022-12-19T03:43:09;21.90;;;11.45;;
69856;SDS011;57147;53.582;10.112;2022-12-19T03:48:15;21.45;;;11.85;;
69856;SDS011;57147;53.582;10.112;2022-12-19T03:53:26;22.27;;;10.73;;
69856;SDS011;57147;53.582;10.112;2022-12-19T03:58:36;21.77;;;12.68;;
69856;SDS011;57147;53.582;10.112;2022-12-19T04:03:43;24.20;;;11.80;;
69856;SDS011;57147;53.582;10.112;2022-12-19T04:08:44;20.00;;;11.50;;
69856;SDS011;57147;53.582;10.112;2022-12-19T04:13:47;22.67;;;12.00;;
69856;SDS011;57147;53.582;10.112;2022-12-19T04:18:54;23.75;;;11.82;;
69856;SDS011;57147;53.582;10.112;2022-12-19T04:24:01;21.63;;;10.18;;
69856;SDS011;57147;53.582;10.112;2022-12-19T04:29:07;22.98;;;11.57;;
69856;SDS011;57147;53.582;10.112;2022-12-19T04:34:13;22.02;;;11.38;;
69856;SDS011;57147;53.582;10.112;2022-12-19T04:39:18;20.63;;;10.45;;
69856;SDS011;57147;53.582;10.112;2022-12-19T04:44:19;19.73;;;10.38;;
69856;SDS011;57147;53.582;10.112;2022-12-19T04:49:22;20.88;;;10.90;;
69856;SDS011;57147;53.582;10.112;2022-12-19T04:54:23;19.13;;;11.00;;
69856;SDS011;57147;53.582;10.112;2022-12-19T04:59:23;19.85;;;11.25;;
69856;SDS011;57147;53.582;10.112;2022-12-19T05:04:26;19.20;;;10.38;;
69856;SDS011;57147;53.582;10.112;2022-12-19T05:09:27;20.48;;;11.50;;
69856;SDS011;57147;53.582;10.112;2022-12-19T05:14:28;19.75;;;11.50;;
69856;SDS011;57147;53.582;10.112;2022-12-19T05:19:31;24.85;;;13.05;;
69856;SDS011;57147;53.582;10.112;2022-12-19T05:24:31;19.02;;;10.10;;
69856;SDS011;57147;53.582;10.112;2022-12-19T05:29:32;19.77;;;11.15;;
69856;SDS011;57147;53.582;10.112;2022-12-19T05:34:35;19.75;;;10.48;;
69856;SDS011;57147;53.582;10.112;2022-12-19T05:39:35;19.48;;;9.45;;
69856;SDS011;57147;53.582;10.112;2022-12-19T05:44:36;19.88;;;10.27;;
69856;SDS011;57147;53.582;10.112;2022-12-19T05:49:39;17.23;;;9.85;;
69856;SDS011;57147;53.582;10.112;2022-12-19T05:54:40;20.52;;;12.23;;
69856;SDS011;57147;53.582;10.112;2022-12-19T05:59:40;20.70;;;11.15;;
69856;SDS011;57147;53.582;10.112;2022-12-19T06:04:43;17.70;;;9.52;;
69856;SDS011;57147;53.582;10.112;2022-12-19T06:09:44;20.73;;;11.68;;
69856;SDS011;57147;53.582;10.112;2022-12-19T06:14:44;18.42;;;11.05;;
69856;SDS011;57147;53.582;10.112;2022-12-19T06:19:48;18.85;;;10.23;;
69856;SDS011;57147;53.582;10.112;2022-12-19T06:24:48;20.60;;;10.45;;
69856;SDS011;57147;53.582;10.112;2022-12-19T06:29:49;21.98;;;13.10;;
69856;SDS011;57147;53.582;10.112;2022-12-19T06:34:52;17.15;;;10.00;;
69856;SDS011;57147;53.582;10.112;2022-12-19T06:39:52;20.55;;;10.95;;
69856;SDS011;57147;53.582;10.112;2022-12-19T06:44:53;20.60;;;10.75;;
69856;SDS011;57147;53.582;10.112;2022-12-19T06:49:57;18.75;;;10.73;;
69856;SDS011;57147;53.582;10.112;2022-12-19T06:54:57;17.55;;;9.73;;
69856;SDS011;57147;53.582;10.112;2022-12-19T06:59:58;20.40;;;10.20;;
69856;SDS011;57147;53.582;10.112;2022-12-19T07:05:02;23.80;;;10.60;;
69856;SDS011;57147;53.582;10.112;2022-12-19T07:10:06;24.08;;;12.50;;
69856;SDS011;57147;53.582;10.112;2022-12-19T07:15:08;20.92;;;9.65;;
69856;SDS011;57147;53.582;10.112;2022-12-19T07:20:12;21.30;;;10.57;;
69856;SDS011;57147;53.582;10.112;2022-12-19T07:25:14;20.08;;;11.32;;
69856;SDS011;57147;53.582;10.112;2022-12-19T07:30:15;19.98;;;11.18;;
69856;SDS011;57147;53.582;10.112;2022-12-19T07:35:21;18.08;;;9.85;;
69856;SDS011;57147;53.582;10.112;2022-12-19T07:40:22;18.77;;;9.88;;
69856;SDS011;57147;53.582;10.112;2022-12-19T07:45:22;20.58;;;10.43;;
69856;SDS011;57147;53.582;10.112;2022-12-19T07:50:26;21.95;;;10.02;;
69856;SDS011;57147;53.582;10.112;2022-12-19T07:55:27;19.10;;;10.27;;
69856;SDS011;57147;53.582;10.112;2022-12-19T08:00:27;20.10;;;11.15;;
69856;SDS011;57147;53.582;10.112;2022-12-19T08:05:31;21.63;;;10.23;;
69856;SDS011;57147;53.582;10.112;2022-12-19T08:10:31;22.02;;;11.02;;
69856;SDS011;57147;53.582;10.112;2022-12-19T08:15:32;19.67;;;11.85;;
69856;SDS011;57147;53.582;10.112;2022-12-19T08:20:35;23.20;;;12.88;;
69856;SDS011;57147;53.582;10.112;2022-12-19T08:25:36;20.02;;;10.50;;
69856;SDS011;57147;53.582;10.112;2022-12-19T08:30:37;22.92;;;11.45;;
69856;SDS011;57147;53.582;10.112;2022-12-19T08:35:40;23.77;;;11.02;;
69856;SDS011;57147;53.582;10.112;2022-12-19T08:40:41;21.85;;;10.73;;
69856;SDS011;57147;53.582;10.112;2022-12-19T08:45:41;20.63;;;10.90;;
69856;SDS011;57147;53.582;10.112;2022-12-19T08:50:50;25.42;;;12.48;;
69856;SDS011;57147;53.582;10.112;2022-12-19T08:55:52;21.95;;;10.48;;
69856;SDS011;57147;53.582;10.112;2022-12-19T09:00:53;23.48;;;11.30;;
69856;SDS011;57147;53.582;10.112;2022-12-19T09:06:00;24.23;;;12.30;;
69856;SDS011;57147;53.582;10.112;2022-12-19T09:11:02;22.25;;;12.82;;
69856;SDS011;57147;53.582;10.112;2022-12-19T09:16:06;29.30;;;12.93;;
69856;SDS011;57147;53.582;10.112;2022-12-19T09:21:12;26.88;;;12.32;;
69856;SDS011;57147;53.582;10.112;2022-12-19T09:26:13;25.80;;;12.63;;
69856;SDS011;57147;53.582;10.112;2022-12-19T09:31:14;24.27;;;11.95;;
69856;SDS011;57147;53.582;10.112;2022-12-19T09:36:19;23.65;;;11.82;;
69856;SDS011;57147;53.582;10.112;2022-12-19T09:41:39;23.48;;;11.77;;
69856;SDS011;57147;53.582;10.112;2022-12-19T09:46:51;23.83;;;12.20;;
69856;SDS011;57147;53.582;10.112;2022-12-19T09:51:59;26.10;;;11.13;;
69856;SDS011;57147;53.582;10.112;2022-12-19T09:57:05;25.35;;;11.68;;
69856;SDS011;57147;53.582;10.112;2022-12-19T10:02:23;27.70;;;11.95;;
69856;SDS011;57147;53.582;10.112;2022-12-19T10:07:33;28.52;;;11.82;;
69856;SDS011;57147;53.582;10.112;2022-12-19T10:12:38;23.95;;;11.90;;
69856;SDS011;57147;53.582;10.112;2022-12-19T10:17:52;26.98;;;12.30;;
69856;SDS011;57147;53.582;10.112;2022-12-19T10:23:10;27.58;;;13.15;;
69856;SDS011;57147;53.582;10.112;2022-12-19T10:28:33;26.85;;;15.40;;
69856;SDS011;57147;53.582;10.112;2022-12-19T10:33:45;25.92;;;12.38;;
69856;SDS011;57147;53.582;10.112;2022-12-19T10:38:55;28.20;;;12.57;;
69856;SDS011;57147;53.582;10.112;2022-12-19T10:44:01;24.48;;;12.02;;
69856;SDS011;57147;53.582;10.112;2022-12-19T10:49:05;25.98;;;11.57;;
69856;SDS011;57147;53.582;10.112;2022-12-19T10:54:12;25.85;;;11.18;;
69856;SDS011;57147;53.582;10.112;2022-12-19T10:59:14;26.05;;;13.68;;
69856;SDS011;57147;53.582;10.112;2022-12-19T11:04:21;26.10;;;12.90;;
69856;SDS011;57147;53.582;10.112;2022-12-19T11:09:31;23.33;;;12.50;;
69856;SDS011;57147;53.582;10.112;2022-12-19T11:14:37;26.55;;;12.02;;
69856;SDS011;57147;53.582;10.112;2022-12-19T11:19:39;24.55;;;13.23;;
69856;SDS011;57147;53.582;10.112;2022-12-19T11:24:43;27.17;;;11.88;;
69856;SDS011;57147;53.582;10.112;2022-12-19T11:29:48;28.67;;;13.48;;
69856;SDS011;57147;53.582;10.112;2022-12-19T11:34:50;21.58;;;10.52;;
69856;SDS011;57147;53.582;10.112;2022-12-19T11:39:54;22.33;;;11.00;;
69856;SDS011;57147;53.582;10.112;2022-12-19T11:44:59;28.10;;;13.85;;
69856;SDS011;57147;53.582;10.112;2022-12-19T11:50:10;18.83;;;10.23;;
69856;SDS011;57147;53.582;10.112;2022-12-19T11:55:19;22.10;;;11.50;;
69856;SDS011;57147;53.582;10.112;2022-12-19T12:00:24;21.63;;;11.25;;
69856;SDS011;57147;53.582;10.112;2022-12-19T12:05:32;24.00;;;11.75;;
69856;SDS011;57147;53.582;10.112;2022-12-19T12:10:45;28.50;;;12.05;;
69856;SDS011;57147;53.582;10.112;2022-12-19T12:15:54;22.75;;;11.88;;
69856;SDS011;57147;53.582;10.112;2022-12-19T12:21:03;20.77;;;11.05;;
69856;SDS011;57147;53.582;10.112;2022-12-19T12:26:12;23.38;;;11.60;;
69856;SDS011;57147;53.582;10.112;2022-12-19T12:31:31;25.50;;;13.25;;
69856;SDS011;57147;53.582;10.112;2022-12-19T12:36:40;24.75;;;11.25;;
69856;SDS011;57147;53.582;10.112;2022-12-19T12:41:52;21.13;;;12.60;;
69856;SDS011;57147;53.582;10.112;2022-12-19T12:47:04;24.40;;;11.85;;
69856;SDS011;57147;53.582;10.112;2022-12-19T12:52:12;22.13;;;12.63;;
69856;SDS011;57147;53.582;10.112;2022-12-19T12:57:34;25.67;;;14.90;;
69856;SDS011;57147;53.582;10.112;2022-12-19T13:02:36;22.00;;;11.63;;
69856;SDS011;57147;53.582;10.112;2022-12-19T13:07:39;26.63;;;11.00;;
69856;SDS011;57147;53.582;10.112;2022-12-19T13:12:54;20.35;;;10.63;;
69856;SDS011;57147;53.582;10.112;2022-12-19T13:18:00;23.38;;;11.52;;
69856;SDS011;57147;53.582;10.112;2022-12-19T13:23:18;20.13;;;10.10;;
69856;SDS011;57147;53.582;10.112;2022-12-19T13:28:38;19.50;;;11.57;;
69856;SDS011;57147;53.582;10.112;2022-12-19T13:33:44;20.00;;;10.35;;
69856;SDS011;57147;53.582;10.112;2022-12-19T13:38:47;21.58;;;11.05;;
69856;SDS011;57147;53.582;10.112;2022-12-19T13:43:54;26.83;;;12.15;;
69856;SDS011;57147;53.582;10.112;2022-12-19T13:49:00;27.17;;;14.80;;
69856;SDS011;57147;53.582;10.112;2022-12-19T13:54:03;22.30;;;10.13;;
69856;SDS011;57147;53.582;10.112;2022-12-19T13:59:06;21.75;;;11.32;;
69856;SDS011;57147;53.582;10.112;2022-12-19T14:04:09;22.90;;;12.55;;
69856;SDS011;57147;53.582;10.112;2022-12-19T14:09:18;19.67;;;10.77;;
69856;SDS011;57147;53.582;10.112;2022-12-19T14:14:25;26.90;;;15.07;;
69856;SDS011;57147;53.582;10.112;2022-12-19T14:19:26;22.55;;;11.88;;
69856;SDS011;57147;53.582;10.112;2022-12-19T14:24:27;19.02;;;11.43;;
69856;SDS011;57147;53.582;10.112;2022-12-19T14:29:30;24.15;;;11.57;;
69856;SDS011;57147;53.582;10.112;2022-12-19T14:34:35;21.17;;;11.80;;
69856;SDS011;57147;53.582;10.112;2022-12-19T14:39:36;22.25;;;11.73;;
69856;SDS011;57147;53.582;10.112;2022-12-19T14:44:50;24.48;;;12.73;;
69856;SDS011;57147;53.582;10.112;2022-12-19T14:49:52;24.75;;;14.25;;
69856;SDS011;57147;53.582;10.112;2022-12-19T15:00:29;25.00;;;15.27;;
69856;SDS011;57147;53.582;10.112;2022-12-19T15:05:32;26.98;;;15.48;;
69856;SDS011;57147;53.582;10.112;2022-12-19T15:10:33;26.63;;;16.20;;
69856;SDS011;57147;53.582;10.112;2022-12-19T15:15:41;25.42;;;14.85;;
69856;SDS011;57147;53.582;10.112;2022-12-19T15:25:44;24.30;;;14.27;;
69856;SDS011;57147;53.582;10.112;2022-12-19T15:30:48;24.20;;;14.25;;
69856;SDS011;57147;53.582;10.112;2022-12-19T15:35:54;25.42;;;15.35;;
69856;SDS011;57147;53.582;10.112;2022-12-19T15:40:55;26.73;;;16.48;;
69856;SDS011;57147;53.582;10.112;2022-12-19T15:45:58;26.10;;;13.85;;
69856;SDS011;57147;53.582;10.112;2022-12-19T15:50:59;27.35;;;16.27;;
69856;SDS011;57147;53.582;10.112;2022-12-19T15:56:00;28.17;;;15.35;;
69856;SDS011;57147;53.582;10.112;2022-12-19T16:01:03;22.67;;;15.10;;
69856;SDS011;57147;53.582;10.112;2022-12-19T16:06:04;27.90;;;16.15;;
69856;SDS011;57147;53.582;10.112;2022-12-19T16:11:13;28.02;;;17.30;;
69856;SDS011;57147;53.582;10.112;2022-12-19T16:16:19;31.55;;;17.27;;
69856;SDS011;57147;53.582;10.112;2022-12-19T16:21:21;31.75;;;18.40;;
69856;SDS011;57147;53.582;10.112;2022-12-19T16:26:26;28.67;;;15.82;;
69856;SDS011;57147;53.582;10.112;2022-12-19T16:31:33;36.88;;;18.35;;
69856;SDS011;57147;53.582;10.112;2022-12-19T16:36:34;32.10;;;17.67;;
69856;SDS011;57147;53.582;10.112;2022-12-19T16:41:35;30.52;;;18.05;;
69856;SDS011;57147;53.582;10.112;2022-12-19T16:46:38;37.22;;;18.45;;
69856;SDS011;57147;53.582;10.112;2022-12-19T16:51:39;27.05;;;15.48;;
69856;SDS011;57147;53.582;10.112;2022-12-19T16:56:40;30.73;;;17.13;;
69856;SDS011;57147;53.582;10.112;2022-12-19T17:01:45;29.65;;;16.48;;
69856;SDS011;57147;53.582;10.112;2022-12-19T17:06:45;27.38;;;15.07;;
69856;SDS011;57147;53.582;10.112;2022-12-19T17:11:47;28.10;;;15.88;;
69856;SDS011;57147;53.582;10.112;2022-12-19T17:16:52;27.25;;;17.38;;
69856;SDS011;57147;53.582;10.112;2022-12-19T17:21:53;25.67;;;15.23;;
69856;SDS011;57147;53.582;10.112;2022-12-19T17:26:54;25.88;;;14.65;;
69856;SDS011;57147;53.582;10.112;2022-12-19T17:31:57;29.83;;;14.77;;
69856;SDS011;57147;53.582;10.112;2022-12-19T17:36:58;25.45;;;15.90;;
69856;SDS011;57147;53.582;10.112;2022-12-19T17:42:01;22.73;;;13.75;;
69856;SDS011;57147;53.582;10.112;2022-12-19T17:47:14;27.70;;;15.80;;
69856;SDS011;57147;53.582;10.112;2022-12-19T17:52:17;25.58;;;14.82;;
69856;SDS011;57147;53.582;10.112;2022-12-19T17:57:18;24.52;;;14.30;;
69856;SDS011;57147;53.582;10.112;2022-12-19T18:02:22;30.40;;;15.30;;
69856;SDS011;57147;53.582;10.112;2022-12-19T18:07:24;33.65;;;15.60;;
69856;SDS011;57147;53.582;10.112;2022-12-19T18:12:25;28.20;;;16.30;;
69856;SDS011;57147;53.582;10.112;2022-12-19T18:17:28;24.55;;;15.27;;
69856;SDS011;57147;53.582;10.112;2022-12-19T18:22:28;23.60;;;13.30;;
69856;SDS011;57147;53.582;10.112;2022-12-19T18:27:29;23.48;;;14.90;;
69856;SDS011;57147;53.582;10.112;2022-12-19T18:32:32;28.25;;;17.58;;
69856;SDS011;57147;53.582;10.112;2022-12-19T18:37:38;23.58;;;13.18;;
69856;SDS011;57147;53.582;10.112;2022-12-19T18:47:42;21.57;;;12.03;;
69856;SDS011;57147;53.582;10.112;2022-12-19T18:57:45;22.33;;;12.88;;
69856;SDS011;57147;53.582;10.112;2022-12-19T19:02:50;22.17;;;12.68;;
69856;SDS011;57147;53.582;10.112;2022-12-19T19:07:52;21.52;;;12.68;;
69856;SDS011;57147;53.582;10.112;2022-12-19T19:12:53;18.70;;;11.57;;
69856;SDS011;57147;53.582;10.112;2022-12-19T19:17:57;16.08;;;9.80;;
69856;SDS011;57147;53.582;10.112;2022-12-19T19:22:59;20.13;;;10.68;;
69856;SDS011;57147;53.582;10.112;2022-12-19T19:28:00;24.00;;;12.45;;
69856;SDS011;57147;53.582;10.112;2022-12-19T19:33:05;21.42;;;12.65;;
69856;SDS011;57147;53.582;10.112;2022-12-19T19:38:09;19.38;;;12.77;;
69856;SDS011;57147;53.582;10.112;2022-12-19T19:43:11;16.13;;;9.95;;
69856;SDS011;57147;53.582;10.112;2022-12-19T19:48:15;20.20;;;11.48;;
69856;SDS011;57147;53.582;10.112;2022-12-19T19:53:16;17.77;;;9.57;;
69856;SDS011;57147;53.582;10.112;2022-12-19T19:58:16;18.35;;;12.82;;
69856;SDS011;57147;53.582;10.112;2022-12-19T20:03:23;15.82;;;10.13;;
69856;SDS011;57147;53.582;10.112;2022-12-19T20:08:23;16.02;;;9.27;;
69856;SDS011;57147;53.582;10.112;2022-12-19T20:13:24;18.85;;;11.40;;
69856;SDS011;57147;53.582;10.112;2022-12-19T20:18:30;19.00;;;10.15;;
69856;SDS011;57147;53.582;10.112;2022-12-19T20:23:31;16.52;;;9.90;;
69856;SDS011;57147;53.582;10.112;2022-12-19T20:28:31;16.88;;;10.82;;
69856;SDS011;57147;53.582;10.112;2022-12-19T20:33:35;16.13;;;8.75;;
69856;SDS011;57147;53.582;10.112;2022-12-19T20:38:35;14.38;;;8.98;;
69856;SDS011;57147;53.582;10.112;2022-12-19T20:43:36;13.98;;;9.48;;
69856;SDS011;57147;53.582;10.112;2022-12-19T20:48:40;14.50;;;9.70;;
69856;SDS011;57147;53.582;10.112;2022-12-19T20:53:41;15.60;;;9.98;;
69856;SDS011;57147;53.582;10.112;2022-12-19T20:58:43;12.75;;;8.25;;
69856;SDS011;57147;53.582;10.112;2022-12-19T21:03:48;15.65;;;8.70;;
69856;SDS011;57147;53.582;10.112;2022-12-19T21:08:49;14.18;;;10.48;;
69856;SDS011;57147;53.582;10.112;2022-12-19T21:13:49;15.13;;;8.85;;
69856;SDS011;57147;53.582;10.112;2022-12-19T21:18:52;15.85;;;10.40;;
69856;SDS011;57147;53.582;10.112;2022-12-19T21:23:53;21.38;;;13.07;;
69856;SDS011;57147;53.582;10.112;2022-12-19T21:28:54;16.85;;;10.65;;
69856;SDS011;57147;53.582;10.112;2022-12-19T21:33:59;14.25;;;9.68;;
69856;SDS011;57147;53.582;10.112;2022-12-19T21:39:00;15.27;;;10.18;;
69856;SDS011;57147;53.582;10.112;2022-12-19T21:44:01;14.50;;;8.95;;
69856;SDS011;57147;53.582;10.112;2022-12-19T21:49:04;15.38;;;10.20;;
69856;SDS011;57147;53.582;10.112;2022-12-19T21:54:05;13.93;;;9.02;;
69856;SDS011;57147;53.582;10.112;2022-12-19T21:59:08;13.43;;;9.25;;
69856;SDS011;57147;53.582;10.112;2022-12-19T22:04:13;14.13;;;8.27;;
69856;SDS011;57147;53.582;10.112;2022-12-19T22:09:16;14.00;;;8.82;;
69856;SDS011;57147;53.582;10.112;2022-12-19T22:14:17;14.13;;;7.97;;
69856;SDS011;57147;53.582;10.112;2022-12-19T22:19:21;16.05;;;8.70;;
69856;SDS011;57147;53.582;10.112;2022-12-19T22:24:22;15.57;;;10.25;;
69856;SDS011;57147;53.582;10.112;2022-12-19T22:29:23;13.43;;;7.45;;
69856;SDS011;57147;53.582;10.112;2022-12-19T22:34:26;13.82;;;7.97;;
69856;SDS011;57147;53.582;10.112;2022-12-19T22:39:27;14.43;;;9.52;;
69856;SDS011;57147;53.582;10.112;2022-12-19T22:44:28;18.25;;;10.38;;
69856;SDS011;57147;53.582;10.112;2022-12-19T22:49:31;15.38;;;10.90;;
69856;SDS011;57147;53.582;10.112;2022-12-19T22:54:31;12.73;;;7.35;;
69856;SDS011;57147;53.582;10.112;2022-12-19T22:59:32;13.88;;;8.38;;
69856;SDS011;57147;53.582;10.112;2022-12-19T23:04:35;11.40;;;7.00;;
69856;SDS011;57147;53.582;10.112;2022-12-19T23:09:36;13.18;;;7.60;;
69856;SDS011;57147;53.582;10.112;2022-12-19T23:14:36;14.32;;;7.47;;
69856;SDS011;57147;53.582;10.112;2022-12-19T23:19:40;12.57;;;6.68;;
69856;SDS011;57147;53.582;10.112;2022-12-19T23:24:40;10.77;;;6.35;;
69856;SDS011;57147;53.582;10.112;2022-12-19T23:29:41;11.35;;;6.68;;
69856;SDS011;57147;53.582;10.112;2022-12-19T23:34:44;12.85;;;7.10;;
69856;SDS011;57147;53.582;10.112;2022-12-19T23:39:45;9.52;;;6.03;;
69856;SDS011;57147;53.582;10.112;2022-12-19T23:44:45;12.55;;;7.75;;
69856;SDS011;57147;53.582;10.112;2022-12-19T23:49:48;11.43;;;6.95;;
69856;SDS011;57147;53.582;10.112;2022-12-19T23:54:49;11.90;;;7.20;;
69856;SDS011;57147;53.582;10.112;2022-12-19T23:59:50;10.75;;;6.50;;
